Time;durP1;ratioP1;P1;durP2;ratioP2;P2;SDS_P1;SDS_P2;PMS_P1;PMS_P2;Temp;Humidity;BMP_temperature;BMP_pressure;BME280_temperature;BME280_humidity;BME280_pressure;Samples;Min_cycle;Max_cycle;Signal;HPM_P1;HPM_P2
2022/05/24 00:02:17;;;;;;;;;;;14.40;99.90;;;;;;4977803;28;20763;-79
2022/05/24 00:04:43;;;;;;;;;;;14.40;99.90;;;;;;4977161;28;19926;-80
2022/05/24 00:07:09;;;;;;;;;;;14.40;99.90;;;;;;4957304;28;20418;-81
2022/05/24 00:09:34;;;;;;;;;;;14.40;99.90;;;;;;4973661;28;20271;-81
2022/05/24 00:12:00;;;;;;;;;;;14.40;99.90;;;;;;4970756;28;19983;-81
2022/05/24 00:17:11;;;;;;;;;;;14.40;99.90;;;;;;4954254;28;19925;-81
2022/05/24 00:19:36;;;;;;;;;;;14.40;99.90;;;;;;4978807;28;19925;-79
2022/05/24 00:22:02;;;;;;;;;;;14.30;99.90;;;;;;4986488;28;19929;-82
2022/05/24 00:24:28;;;;;;;;;;;14.30;99.90;;;;;;4974996;28;19922;-79
2022/05/24 00:26:53;;;;;;;;;;;14.30;99.90;;;;;;4977728;28;19969;-80
2022/05/24 00:29:19;;;;;;;;;;;14.30;99.90;;;;;;4957174;28;19921;-80
2022/05/24 00:31:45;;;;;;;;;;;14.30;99.90;;;;;;4975268;28;19936;-78
2022/05/24 00:34:10;;;;;;;;;;;14.30;99.90;;;;;;4973048;28;19925;-80
2022/05/24 00:36:36;;;;;;;;;;;14.20;99.90;;;;;;4975358;28;19933;-78
2022/05/24 00:39:02;;;;;;;;;;;14.30;99.90;;;;;;4971991;28;19932;-81
2022/05/24 00:41:30;;;;;;;;;;;14.20;99.90;;;;;;4974349;28;19925;-80
2022/05/24 00:44:00;;;;;;;;;;;14.20;99.90;;;;;;4977842;28;19932;-79
2022/05/24 00:46:29;;;;;;;;;;;14.20;99.90;;;;;;4960725;28;19935;-79
2022/05/24 00:49:02;;;;;;;;;;;14.20;99.90;;;;;;4973936;28;19930;-79
2022/05/24 00:51:30;;;;;;;;;;;14.20;99.90;;;;;;4977288;28;19976;-78
2022/05/24 00:53:56;;;;;;;;;;;14.20;99.90;;;;;;4976836;28;20453;-78
2022/05/24 00:56:33;;;;;;;;;;;14.20;99.90;;;;;;4976166;28;19921;-80
2022/05/24 00:59:00;;;;;;;;;;;14.20;99.90;;;;;;4975128;28;19961;-79
2022/05/24 01:01:35;;;;;;;;;;;14.20;99.90;;;;;;4977828;28;19929;-79
2022/05/24 01:04:00;;;;;;;;;;;14.20;99.90;;;;;;4978771;28;20382;-78
2022/05/24 01:06:27;;;;;;;;;;;14.20;99.90;;;;;;4983175;28;19932;-78
2022/05/24 01:08:53;;;;;;;;;;;14.20;99.90;;;;;;4982380;28;20373;-78
2022/05/24 01:11:21;;;;;;;;;;;14.30;99.90;;;;;;4975963;28;21057;-78
2022/05/24 01:13:47;;;;;;;;;;;14.20;99.90;;;;;;4980930;28;19933;-78
2022/05/24 01:16:13;;;;;;;;;;;14.20;99.90;;;;;;4946623;28;19956;-80
2022/05/24 01:18:39;;;;;;;;;;;14.20;99.90;;;;;;4977802;28;19926;-79
2022/05/24 01:21:09;;;;;;;;;;;14.10;99.90;;;;;;4976711;28;19925;-79
2022/05/24 01:23:53;;;;;;;;;;;14.20;99.90;;;;;;4965778;28;19925;-79
2022/05/24 01:26:22;;;;;;;;;;;14.10;99.90;;;;;;4977519;28;19929;-79
2022/05/24 01:28:53;;;;;;;;;;;14.10;99.90;;;;;;4977485;28;20393;-79
2022/05/24 01:31:19;;;;;;;;;;;14.10;99.90;;;;;;4973324;28;20063;-80
2022/05/24 01:36:32;;;;;;;;;;;14.10;99.90;;;;;;4977844;28;20755;-80
2022/05/24 01:39:00;;;;;;;;;;;14.00;99.90;;;;;;4978417;28;20398;-79
2022/05/24 01:41:46;;;;;;;;;;;14.00;99.90;;;;;;4978490;28;19971;-79
2022/05/24 01:44:15;;;;;;;;;;;13.80;99.90;;;;;;4983106;28;19925;-78
2022/05/24 01:46:44;;;;;;;;;;;13.90;99.90;;;;;;4980704;28;19968;-79
2022/05/24 01:49:12;;;;;;;;;;;14.00;99.90;;;;;;4981892;28;19995;-79
2022/05/24 01:51:40;;;;;;;;;;;13.90;99.90;;;;;;4955616;28;19925;-79
2022/05/24 01:54:07;;;;;;;;;;;13.90;99.90;;;;;;4975175;28;19933;-78
2022/05/24 01:56:53;;;;;;;;;;;13.90;99.90;;;;;;4953936;28;20667;-78
2022/05/24 01:59:20;;;;;;;;;;;13.80;99.90;;;;;;4937307;28;20474;-79
2022/05/24 02:01:54;;;;;;;;;;;13.90;99.90;;;;;;4959671;28;19952;-79
2022/05/24 02:04:20;;;;;;;;;;;13.90;99.90;;;;;;4979197;28;19925;-79
2022/05/24 02:06:56;;;;;;;;;;;13.90;99.90;;;;;;4966040;28;19932;-79
2022/05/24 02:09:22;;;;;;;;;;;13.90;99.90;;;;;;4994323;28;19971;-78
2022/05/24 02:11:48;;;;;;;;;;;14.00;99.90;;;;;;4995718;28;20516;-78
2022/05/24 02:14:17;;;;;;;;;;;13.90;99.90;;;;;;4999719;28;20860;-79
2022/05/24 02:16:48;;;;;;;;;;;14.00;99.90;;;;;;4968392;28;19925;-78
2022/05/24 02:19:15;;;;;;;;;;;14.00;99.90;;;;;;4998224;28;20092;-79
2022/05/24 02:21:42;;;;;;;;;;;14.00;99.90;;;;;;4978475;28;19925;-78
2022/05/24 02:24:16;;;;;;;;;;;14.00;99.90;;;;;;4995219;28;19925;-78
2022/05/24 02:26:42;;;;;;;;;;;14.10;99.90;;;;;;4992568;28;19964;-79
2022/05/24 02:29:09;;;;;;;;;;;14.00;99.90;;;;;;4976896;28;20012;-78
2022/05/24 02:31:35;;;;;;;;;;;14.10;99.90;;;;;;4997454;28;19926;-78
2022/05/24 02:34:01;;;;;;;;;;;14.10;99.90;;;;;;4998068;28;19925;-79
2022/05/24 02:36:26;;;;;;;;;;;14.20;99.90;;;;;;4996309;28;19951;-78
2022/05/24 02:38:52;;;;;;;;;;;14.20;99.90;;;;;;4995429;28;19936;-79
2022/05/24 02:41:31;;;;;;;;;;;14.20;99.90;;;;;;4977920;28;20024;-78
2022/05/24 02:43:58;;;;;;;;;;;14.20;99.90;;;;;;4969705;28;20591;-78
2022/05/24 02:46:25;;;;;;;;;;;14.20;99.90;;;;;;4993651;28;20008;-79
2022/05/24 02:48:50;;;;;;;;;;;14.20;99.90;;;;;;4971713;28;20364;-78
2022/05/24 02:51:16;;;;;;;;;;;14.20;99.90;;;;;;4990426;28;20382;-78
2022/05/24 02:53:43;;;;;;;;;;;14.20;99.90;;;;;;4998030;28;19925;-79
2022/05/24 02:56:09;;;;;;;;;;;14.40;99.90;;;;;;4996845;28;20813;-78
2022/05/24 02:58:41;;;;;;;;;;;14.30;99.90;;;;;;4993200;28;19925;-78
2022/05/24 03:01:11;;;;;;;;;;;14.40;99.90;;;;;;4971959;28;19925;-78
2022/05/24 03:03:37;;;;;;;;;;;14.40;99.90;;;;;;4997157;28;20319;-78
2022/05/24 03:06:02;;;;;;;;;;;14.40;99.90;;;;;;4989257;28;20699;-78
2022/05/24 03:11:12;;;;;;;;;;;14.30;99.90;;;;;;4994147;28;19932;-79
2022/05/24 03:16:22;;;;;;;;;;;14.50;99.90;;;;;;4997984;28;19985;-79
2022/05/24 03:18:48;;;;;;;;;;;14.50;99.90;;;;;;4997673;28;19929;-78
2022/05/24 03:21:13;;;;;;;;;;;14.40;99.90;;;;;;4991594;28;20383;-78
2022/05/24 03:23:39;;;;;;;;;;;14.40;99.90;;;;;;4970496;28;19926;-79
2022/05/24 03:26:05;;;;;;;;;;;14.40;99.90;;;;;;4973659;28;19983;-78
2022/05/24 03:28:30;;;;;;;;;;;14.50;99.90;;;;;;4992587;28;20704;-78
2022/05/24 03:30:56;;;;;;;;;;;14.40;99.90;;;;;;4994049;28;19925;-78
2022/05/24 03:33:23;;;;;;;;;;;14.40;99.90;;;;;;4991252;28;19929;-78
2022/05/24 03:35:49;;;;;;;;;;;14.40;99.90;;;;;;4992360;28;20024;-79
2022/05/24 03:38:15;;;;;;;;;;;14.50;99.90;;;;;;4992484;28;19925;-79
2022/05/24 03:40:40;;;;;;;;;;;14.50;99.90;;;;;;4989771;28;19925;-78
2022/05/24 03:43:13;;;;;;;;;;;14.50;99.90;;;;;;4957727;28;19925;-79
2022/05/24 03:45:39;;;;;;;;;;;14.50;99.90;;;;;;4995337;28;19925;-79
2022/05/24 03:48:05;;;;;;;;;;;14.50;99.90;;;;;;4993896;28;19952;-80
2022/05/24 03:50:31;;;;;;;;;;;14.50;99.90;;;;;;4994039;28;19924;-79
2022/05/24 03:52:57;;;;;;;;;;;14.50;99.90;;;;;;4993805;28;19925;-78
2022/05/24 03:55:22;;;;;;;;;;;14.50;99.90;;;;;;4992678;28;19929;-79
2022/05/24 03:58:00;;;;;;;;;;;14.50;99.90;;;;;;4968366;28;19925;-78
2022/05/24 04:00:29;;;;;;;;;;;14.60;99.90;;;;;;4994291;28;20382;-79
2022/05/24 04:02:55;;;;;;;;;;;14.50;99.90;;;;;;4996084;28;20214;-78
2022/05/24 04:05:22;;;;;;;;;;;14.50;99.90;;;;;;4995075;28;19925;-78
2022/05/24 04:07:47;;;;;;;;;;;14.50;99.90;;;;;;4997016;28;19925;-79
2022/05/24 04:10:14;;;;;;;;;;;14.50;99.90;;;;;;4974500;28;19971;-78
2022/05/24 04:12:39;;;;;;;;;;;14.40;99.90;;;;;;5000838;28;19925;-78
2022/05/24 04:15:06;;;;;;;;;;;14.50;99.90;;;;;;4999420;28;19987;-79
2022/05/24 04:17:31;;;;;;;;;;;14.50;99.90;;;;;;4993772;28;19929;-78
2022/05/24 04:19:57;;;;;;;;;;;14.50;99.90;;;;;;5000187;28;19925;-77
2022/05/24 04:22:23;;;;;;;;;;;14.40;99.90;;;;;;4974353;28;19932;-78
2022/05/24 04:24:48;;;;;;;;;;;14.50;99.90;;;;;;4994365;28;19925;-78
2022/05/24 04:27:14;;;;;;;;;;;14.40;99.90;;;;;;5004358;28;20815;-79
2022/05/24 04:29:41;;;;;;;;;;;14.40;99.90;;;;;;4992859;28;19925;-79
2022/05/24 04:32:07;;;;;;;;;;;14.40;99.90;;;;;;4998836;28;19925;-79
2022/05/24 04:34:33;;;;;;;;;;;14.30;99.90;;;;;;4971851;28;20745;-78
2022/05/24 04:36:59;;;;;;;;;;;14.40;99.90;;;;;;4973047;28;20015;-78
2022/05/24 04:39:24;;;;;;;;;;;14.40;99.90;;;;;;5000880;28;19925;-79
2022/05/24 04:44:34;;;;;;;;;;;14.40;99.90;;;;;;4986804;28;19968;-79
2022/05/24 04:47:09;;;;;;;;;;;14.40;99.90;;;;;;4998729;28;20037;-79
2022/05/24 04:49:35;;;;;;;;;;;14.40;99.90;;;;;;4970321;28;19925;-77
2022/05/24 04:52:01;;;;;;;;;;;14.30;99.90;;;;;;4994078;28;20083;-77
2022/05/24 04:54:27;;;;;;;;;;;14.30;99.90;;;;;;4974674;28;20501;-78
2022/05/24 04:56:52;;;;;;;;;;;14.40;99.90;;;;;;4980745;28;20039;-78
2022/05/24 04:59:18;;;;;;;;;;;14.40;99.90;;;;;;4997678;28;19925;-79
2022/05/24 05:01:45;;;;;;;;;;;14.20;99.90;;;;;;4990474;28;20414;-78
2022/05/24 05:04:11;;;;;;;;;;;14.30;99.90;;;;;;4991156;28;20009;-78
2022/05/24 05:06:36;;;;;;;;;;;14.30;99.90;;;;;;4996324;28;19921;-79
2022/05/24 05:09:03;;;;;;;;;;;14.10;99.90;;;;;;4970672;28;20383;-80
2022/05/24 05:11:28;;;;;;;;;;;14.20;99.90;;;;;;4995295;28;20032;-78
2022/05/24 05:13:54;;;;;;;;;;;14.10;99.90;;;;;;5000203;28;19947;-78
2022/05/24 05:16:20;;;;;;;;;;;14.10;99.90;;;;;;4995597;28;19976;-78
2022/05/24 05:18:46;;;;;;;;;;;14.10;99.90;;;;;;5003165;28;19994;-78
2022/05/24 05:21:11;;;;;;;;;;;14.10;99.90;;;;;;4994919;28;21190;-78
2022/05/24 05:23:37;;;;;;;;;;;14.10;99.90;;;;;;4997175;28;19931;-78
2022/05/24 05:26:03;;;;;;;;;;;14.10;99.90;;;;;;4978059;28;19925;-78
2022/05/24 05:28:28;;;;;;;;;;;14.10;99.90;;;;;;4999800;28;20727;-79
2022/05/24 05:33:39;;;;;;;;;;;14.20;99.90;;;;;;4998516;28;19968;-78
2022/05/24 05:36:05;;;;;;;;;;;14.30;99.90;;;;;;4995460;28;19932;-80
2022/05/24 05:38:31;;;;;;;;;;;14.20;99.90;;;;;;4974948;28;20349;-80
2022/05/24 05:40:57;;;;;;;;;;;14.30;99.90;;;;;;5003188;28;19937;-81
2022/05/24 05:43:23;;;;;;;;;;;14.40;99.90;;;;;;4999130;28;19925;-78
2022/05/24 05:45:52;;;;;;;;;;;14.40;99.90;;;;;;4984707;28;19940;-78
2022/05/24 05:48:18;;;;;;;;;;;14.40;99.90;;;;;;5002492;28;20012;-78
2022/05/24 05:50:44;;;;;;;;;;;14.40;99.90;;;;;;4984621;28;20296;-79
2022/05/24 05:53:10;;;;;;;;;;;14.40;99.90;;;;;;5004724;28;19931;-79
2022/05/24 05:55:36;;;;;;;;;;;14.30;99.90;;;;;;5003459;28;20808;-78
2022/05/24 05:58:02;;;;;;;;;;;14.30;99.90;;;;;;5000499;28;20007;-78
2022/05/24 06:00:27;;;;;;;;;;;14.30;99.90;;;;;;5001634;28;20366;-78
2022/05/24 06:02:53;;;;;;;;;;;14.40;99.90;;;;;;5001697;28;19925;-79
2022/05/24 06:05:19;;;;;;;;;;;14.40;99.90;;;;;;4975019;28;20037;-78
2022/05/24 06:07:45;;;;;;;;;;;14.40;99.90;;;;;;4999482;28;19925;-79
2022/05/24 06:10:11;;;;;;;;;;;14.70;99.90;;;;;;4999376;28;19933;-80
2022/05/24 06:12:37;;;;;;;;;;;14.70;99.90;;;;;;4998490;28;19925;-78
2022/05/24 06:15:03;;;;;;;;;;;14.80;99.90;;;;;;4998095;28;20596;-79
2022/05/24 06:17:29;;;;;;;;;;;14.70;99.90;;;;;;4997554;28;20832;-78
2022/05/24 06:19:57;;;;;;;;;;;14.70;99.90;;;;;;5003089;28;19924;-78
2022/05/24 06:22:23;;;;;;;;;;;14.80;99.90;;;;;;4999919;28;19925;-80
2022/05/24 06:24:49;;;;;;;;;;;14.90;99.90;;;;;;5004104;28;19995;-79
2022/05/24 06:27:19;;;;;;;;;;;14.90;99.90;;;;;;4975664;28;20374;-78
2022/05/24 06:29:44;;;;;;;;;;;14.80;99.90;;;;;;4996950;28;19936;-77
2022/05/24 06:32:10;;;;;;;;;;;14.70;99.90;;;;;;4980754;28;19925;-80
2022/05/24 06:34:36;;;;;;;;;;;14.80;99.90;;;;;;4996106;28;19929;-78
2022/05/24 06:37:01;;;;;;;;;;;14.70;99.90;;;;;;4997961;28;19975;-78
2022/05/24 06:39:27;;;;;;;;;;;14.60;99.90;;;;;;4998383;28;19929;-78
2022/05/24 06:41:53;;;;;;;;;;;14.40;99.90;;;;;;4996539;28;20776;-77
2022/05/24 06:44:18;;;;;;;;;;;14.50;99.90;;;;;;5001364;28;19979;-78
2022/05/24 06:46:44;;;;;;;;;;;14.40;99.90;;;;;;5003491;28;20777;-77
2022/05/24 06:49:11;;;;;;;;;;;14.40;99.90;;;;;;4994095;28;19973;-77
2022/05/24 06:51:37;;;;;;;;;;;14.30;99.90;;;;;;4999229;28;19929;-78
2022/05/24 06:54:02;;;;;;;;;;;14.40;99.90;;;;;;5002653;28;19931;-79
2022/05/24 06:56:29;;;;;;;;;;;14.40;99.90;;;;;;4970605;28;19937;-76
2022/05/24 07:02:25;;;;;;;;;;;14.30;99.90;;;;;;4998277;28;19925;-78
2022/05/24 07:04:25;;;;;;;;;;;14.30;99.90;;;;;;4998339;28;19929;-77
2022/05/24 07:06:51;;;;;;;;;;;14.30;99.90;;;;;;4996998;28;19975;-78
2022/05/24 07:09:17;;;;;;;;;;;14.30;99.90;;;;;;4996489;28;19928;-79
2022/05/24 07:11:43;;;;;;;;;;;14.30;99.90;;;;;;4974912;28;19929;-77
2022/05/24 07:14:09;;;;;;;;;;;14.30;99.90;;;;;;4993452;28;19986;-76
2022/05/24 07:16:34;;;;;;;;;;;14.20;99.90;;;;;;5002313;28;19925;-78
2022/05/24 07:19:00;;;;;;;;;;;14.20;99.90;;;;;;4997005;28;19931;-78
2022/05/24 07:21:26;;;;;;;;;;;14.20;99.90;;;;;;5000645;28;20255;-77
2022/05/24 07:23:51;;;;;;;;;;;14.20;99.90;;;;;;5001406;28;20015;-77
2022/05/24 07:26:18;;;;;;;;;;;14.20;99.90;;;;;;4997516;28;20028;-77
2022/05/24 07:28:44;;;;;;;;;;;14.30;99.90;;;;;;4965701;28;19968;-78
2022/05/24 07:31:09;;;;;;;;;;;14.40;99.90;;;;;;4984501;28;20032;-78
2022/05/24 07:33:36;;;;;;;;;;;14.40;99.90;;;;;;4977092;28;19959;-78
2022/05/24 07:36:02;;;;;;;;;;;14.50;99.90;;;;;;4959841;28;19987;-79
2022/05/24 07:38:28;;;;;;;;;;;14.60;99.90;;;;;;4970393;28;19995;-78
2022/05/24 07:46:23;;;;;;;;;;;14.60;99.90;;;;;;4952632;28;20019;-77
2022/05/24 07:48:48;;;;;;;;;;;14.60;99.90;;;;;;4982044;28;20012;-76
2022/05/24 07:51:14;;;;;;;;;;;14.50;99.90;;;;;;4964282;28;19924;-77
2022/05/24 07:53:39;;;;;;;;;;;14.70;99.90;;;;;;4981492;28;19929;-79
2022/05/24 07:56:06;;;;;;;;;;;14.60;99.90;;;;;;4966447;28;19929;-77
2022/05/24 07:58:31;;;;;;;;;;;14.60;99.90;;;;;;4978534;28;20379;-77
2022/05/24 08:00:58;;;;;;;;;;;14.50;99.90;;;;;;4981334;28;20378;-78
2022/05/24 08:03:24;;;;;;;;;;;14.60;99.90;;;;;;4975855;28;19986;-77
2022/05/24 08:05:50;;;;;;;;;;;14.60;99.90;;;;;;4979453;28;19929;-77
2022/05/24 08:08:17;;;;;;;;;;;14.70;99.90;;;;;;4976598;28;19929;-78
2022/05/24 08:10:43;;;;;;;;;;;14.80;99.90;;;;;;4943165;28;20020;-78
2022/05/24 08:13:10;;;;;;;;;;;15.20;99.90;;;;;;4971860;28;20017;-77
2022/05/24 08:15:36;;;;;;;;;;;15.40;99.90;;;;;;4984125;28;19929;-80
2022/05/24 08:18:02;;;;;;;;;;;15.50;99.90;;;;;;4954636;28;20040;-77
2022/05/24 08:20:29;;;;;;;;;;;15.70;99.90;;;;;;4979029;28;19991;-79
2022/05/24 08:22:55;;;;;;;;;;;15.70;99.90;;;;;;4960796;28;20943;-79
2022/05/24 08:25:21;;;;;;;;;;;15.80;99.90;;;;;;4979241;28;20027;-78
2022/05/24 08:27:47;;;;;;;;;;;15.80;99.90;;;;;;4973701;28;19947;-77
2022/05/24 08:30:14;;;;;;;;;;;15.70;99.90;;;;;;4964697;28;19929;-77
2022/05/24 08:32:40;;;;;;;;;;;16.00;99.90;;;;;;4976459;28;19925;-77
2022/05/24 08:35:07;;;;;;;;;;;15.90;99.90;;;;;;4981451;28;19929;-79
2022/05/24 08:37:32;;;;;;;;;;;15.80;99.90;;;;;;4949551;28;19968;-77
2022/05/24 08:40:08;;;;;;;;;;;15.60;99.90;;;;;;4982501;28;21024;-78
2022/05/24 08:42:53;;;;;;;;;;;15.50;99.90;;;;;;4980715;28;20555;-77
2022/05/24 08:48:23;;;;;;;;;;;15.90;99.90;;;;;;4980370;28;19932;-77
2022/05/24 08:50:51;;;;;;;;;;;15.60;99.90;;;;;;4983004;28;20375;-78
2022/05/24 08:53:30;;;;;;;;;;;15.50;99.90;;;;;;4981257;28;20070;-77
2022/05/24 08:55:57;;;;;;;;;;;15.80;99.90;;;;;;4980271;28;19924;-77
2022/05/24 08:58:34;;;;;;;;;;;16.20;99.90;;;;;;4958750;28;19929;-76
2022/05/24 09:01:01;;;;;;;;;;;16.20;99.90;;;;;;4979164;28;20272;-77
2022/05/24 09:03:27;;;;;;;;;;;16.10;99.90;;;;;;4972590;28;19925;-78
2022/05/24 09:06:07;;;;;;;;;;;15.90;99.90;;;;;;4985041;28;19925;-78
2022/05/24 09:08:45;;;;;;;;;;;15.90;99.90;;;;;;4985711;28;19932;-80
2022/05/24 09:11:21;;;;;;;;;;;16.30;99.90;;;;;;4960652;28;19940;-78
2022/05/24 09:13:59;;;;;;;;;;;16.90;99.90;;;;;;4956583;28;19975;-77
2022/05/24 09:16:33;;;;;;;;;;;17.60;99.90;;;;;;4987406;28;20380;-76
2022/05/24 09:19:06;;;;;;;;;;;18.10;99.90;;;;;;4982799;28;19936;-78
2022/05/24 09:21:33;;;;;;;;;;;18.30;99.90;;;;;;4986708;28;19933;-78
2022/05/24 09:24:11;;;;;;;;;;;18.70;99.90;;;;;;4986405;28;20337;-77
2022/05/24 09:26:56;;;;;;;;;;;18.80;99.90;;;;;;4980889;28;19925;-77
2022/05/24 09:29:22;;;;;;;;;;;19.20;99.90;;;;;;4950850;28;19983;-78
2022/05/24 09:31:49;;;;;;;;;;;18.30;99.90;;;;;;4947683;28;19930;-78
2022/05/24 09:34:17;;;;;;;;;;;17.60;99.90;;;;;;4968205;28;20266;-77
2022/05/24 09:36:53;;;;;;;;;;;17.40;99.90;;;;;;4942690;28;20804;-77
2022/05/24 09:39:27;;;;;;;;;;;17.10;99.90;;;;;;4963998;28;19926;-78
2022/05/24 09:41:54;;;;;;;;;;;17.30;99.90;;;;;;4965305;28;19929;-77
2022/05/24 09:44:20;;;;;;;;;;;17.10;99.90;;;;;;4962695;28;19963;-76
2022/05/24 09:46:46;;;;;;;;;;;16.90;99.90;;;;;;4963722;28;20605;-75
2022/05/24 09:49:21;;;;;;;;;;;16.70;99.90;;;;;;4965545;28;19925;-79
2022/05/24 09:51:47;;;;;;;;;;;16.90;99.90;;;;;;4954680;28;19929;-76
2022/05/24 09:54:14;;;;;;;;;;;16.40;99.90;;;;;;4949221;28;19929;-79
2022/05/24 09:56:40;;;;;;;;;;;16.00;99.90;;;;;;4949757;28;19925;-78
2022/05/24 09:59:07;;;;;;;;;;;16.00;99.90;;;;;;4953489;28;19930;-78
2022/05/24 10:01:41;;;;;;;;;;;15.80;99.90;;;;;;4950848;28;19930;-79
2022/05/24 10:04:11;;;;;;;;;;;15.60;99.90;;;;;;4939123;28;19930;-78
2022/05/24 10:06:39;;;;;;;;;;;15.30;99.90;;;;;;4957363;28;19926;-80
2022/05/24 10:09:20;;;;;;;;;;;15.20;99.90;;;;;;4905273;28;20503;-81
2022/05/24 10:12:00;;;;;;;;;;;14.90;99.90;;;;;;4932173;28;20076;-80
2022/05/24 10:14:44;;;;;;;;;;;15.50;99.90;;;;;;4949254;28;19990;-82
2022/05/24 10:17:49;;;;;;;;;;;15.90;99.90;;;;;;4958315;28;19979;-80
2022/05/24 10:20:33;;;;;;;;;;;16.20;99.90;;;;;;4925359;28;19922;-78
2022/05/24 10:23:04;;;;;;;;;;;17.10;99.90;;;;;;4910281;28;19931;-80
2022/05/24 10:25:35;;;;;;;;;;;17.00;99.90;;;;;;4943309;28;19930;-77
2022/05/24 10:28:04;;;;;;;;;;;17.40;99.90;;;;;;4976202;28;19925;-75
2022/05/24 10:30:45;;;;;;;;;;;18.00;99.90;;;;;;4956724;28;19964;-74
2022/05/24 10:39:34;;;;;;;;;;;17.20;99.90;;;;;;4958915;28;19929;-77
2022/05/24 10:42:09;;;;;;;;;;;16.90;99.90;;;;;;4975169;28;19925;-79
2022/05/24 10:44:46;;;;;;;;;;;15.40;99.90;;;;;;4979824;28;19925;-80
2022/05/24 10:47:18;;;;;;;;;;;14.60;99.90;;;;;;4982697;28;19964;-80
2022/05/24 10:49:46;;;;;;;;;;;14.10;99.90;;;;;;4980348;28;19931;-79
2022/05/24 10:52:30;;;;;;;;;;;13.90;99.90;;;;;;4970938;28;19925;-80
2022/05/24 10:55:05;;;;;;;;;;;13.70;99.90;;;;;;4963355;28;20469;-79
2022/05/24 10:57:38;;;;;;;;;;;13.60;99.90;;;;;;4983476;28;20393;-79
2022/05/24 11:00:12;;;;;;;;;;;13.50;99.90;;;;;;4988040;28;20375;-79
2022/05/24 11:02:44;;;;;;;;;;;13.50;99.90;;;;;;4985117;28;19925;-80
2022/05/24 11:05:30;;;;;;;;;;;13.60;99.90;;;;;;4964881;28;20746;-80
2022/05/24 11:08:04;;;;;;;;;;;13.50;99.90;;;;;;4982918;28;19925;-80
2022/05/24 11:10:34;;;;;;;;;;;13.60;99.90;;;;;;4983732;28;19929;-79
2022/05/24 11:13:10;;;;;;;;;;;13.70;99.90;;;;;;4983730;28;19979;-78
2022/05/24 11:15:39;;;;;;;;;;;13.90;99.90;;;;;;4978800;28;20768;-78
2022/05/24 11:18:12;;;;;;;;;;;13.90;99.90;;;;;;4984386;28;19925;-81
2022/05/24 11:20:41;;;;;;;;;;;14.20;99.90;;;;;;4970020;28;20040;-80
2022/05/24 11:23:19;;;;;;;;;;;14.90;99.90;;;;;;4986507;28;19926;-82
2022/05/24 11:25:51;;;;;;;;;;;16.10;99.90;;;;;;4966648;28;19929;-81
2022/05/24 11:28:23;;;;;;;;;;;16.50;99.90;;;;;;4982110;28;19933;-78
2022/05/24 11:30:49;;;;;;;;;;;17.10;99.90;;;;;;4981921;28;21092;-81
2022/05/24 11:33:35;;;;;;;;;;;16.80;99.90;;;;;;4969375;28;19925;-80
2022/05/24 11:36:21;;;;;;;;;;;17.30;99.90;;;;;;4975105;28;20126;-81
2022/05/24 11:38:48;;;;;;;;;;;17.70;99.90;;;;;;4977053;28;19948;-80
2022/05/24 11:41:19;;;;;;;;;;;17.90;99.90;;;;;;4964931;28;20756;-78
2022/05/24 11:43:44;;;;;;;;;;;17.20;99.90;;;;;;4982318;28;19925;-80
2022/05/24 11:46:10;;;;;;;;;;;16.80;99.90;;;;;;4981783;28;20666;-81
2022/05/24 11:48:43;;;;;;;;;;;16.40;99.90;;;;;;4976698;28;20345;-78
2022/05/24 11:51:36;;;;;;;;;;;16.80;99.90;;;;;;4961186;28;19967;-77
2022/05/24 11:54:03;;;;;;;;;;;16.20;99.90;;;;;;4974028;28;20019;-80
2022/05/24 11:56:29;;;;;;;;;;;15.90;99.90;;;;;;4983618;28;20018;-78
2022/05/24 11:58:58;;;;;;;;;;;15.80;99.90;;;;;;4981391;28;19925;-79
2022/05/24 12:01:23;;;;;;;;;;;15.80;99.90;;;;;;4984140;28;19932;-77
2022/05/24 12:09:55;;;;;;;;;;;16.40;99.90;;;;;;4982418;28;19932;-78
2022/05/24 12:12:28;;;;;;;;;;;16.00;99.90;;;;;;4981351;28;19932;-80
2022/05/24 12:15:17;;;;;;;;;;;15.70;99.90;;;;;;4984059;28;20011;-78
2022/05/24 12:17:44;;;;;;;;;;;16.00;99.90;;;;;;4970945;28;20387;-79
2022/05/24 12:20:30;;;;;;;;;;;16.10;99.90;;;;;;4983672;28;19925;-80
2022/05/24 12:23:13;;;;;;;;;;;16.50;99.90;;;;;;4954766;28;19935;-79
2022/05/24 12:25:59;;;;;;;;;;;16.40;99.90;;;;;;4983557;28;19964;-77
2022/05/24 12:28:40;;;;;;;;;;;15.90;99.90;;;;;;4948134;28;19972;-79
2022/05/24 12:31:06;;;;;;;;;;;15.50;99.90;;;;;;4980952;28;20712;-80
2022/05/24 12:33:31;;;;;;;;;;;15.10;99.90;;;;;;4979854;28;19925;-78
2022/05/24 12:36:00;;;;;;;;;;;14.90;99.90;;;;;;4976110;28;20295;-82
2022/05/24 12:38:27;;;;;;;;;;;14.70;99.90;;;;;;4953190;28;20008;-81
2022/05/24 12:41:12;;;;;;;;;;;14.60;99.90;;;;;;4961658;28;20915;-81
2022/05/24 12:43:37;;;;;;;;;;;14.50;99.90;;;;;;4970949;28;19925;-79
2022/05/24 12:46:03;;;;;;;;;;;14.40;99.90;;;;;;4980288;28;19925;-80
2022/05/24 12:48:34;;;;;;;;;;;14.40;99.90;;;;;;4985489;28;20012;-80
2022/05/24 12:51:01;;;;;;;;;;;14.30;99.90;;;;;;4984569;28;19921;-81
2022/05/24 12:53:27;;;;;;;;;;;14.20;99.90;;;;;;4980621;28;19929;-81
2022/05/24 12:55:59;;;;;;;;;;;14.30;99.90;;;;;;4974892;28;21057;-80
2022/05/24 12:58:30;;;;;;;;;;;14.30;99.90;;;;;;4964808;28;20334;-80
2022/05/24 13:01:26;;;;;;;;;;;14.40;99.90;;;;;;4969615;28;20035;-79
2022/05/24 13:03:57;;;;;;;;;;;14.50;99.90;;;;;;4956832;28;19929;-81
2022/05/24 13:06:28;;;;;;;;;;;14.60;99.90;;;;;;4981583;28;19929;-78
2022/05/24 13:09:09;;;;;;;;;;;14.70;99.90;;;;;;4981198;28;20003;-81
2022/05/24 13:11:35;;;;;;;;;;;14.80;99.90;;;;;;4983771;28;19925;-78
2022/05/24 13:14:01;;;;;;;;;;;14.90;99.90;;;;;;4988398;28;19963;-79
2022/05/24 13:16:27;;;;;;;;;;;15.10;99.90;;;;;;4989980;28;19925;-79
2022/05/24 13:18:53;;;;;;;;;;;15.20;99.90;;;;;;4968508;28;19970;-78
2022/05/24 13:21:22;;;;;;;;;;;15.20;99.90;;;;;;4989795;28;19932;-80
2022/05/24 13:23:48;;;;;;;;;;;15.40;99.90;;;;;;4989841;28;19932;-78
2022/05/24 13:26:15;;;;;;;;;;;16.00;99.90;;;;;;4985053;28;19925;-80
2022/05/24 13:28:44;;;;;;;;;;;17.00;99.90;;;;;;4985198;28;19924;-79
2022/05/24 13:34:11;;;;;;;;;;;16.90;99.90;;;;;;4983772;28;19995;-78
2022/05/24 13:36:42;;;;;;;;;;;16.60;99.90;;;;;;4962339;28;20013;-80
2022/05/24 13:39:10;;;;;;;;;;;16.40;99.90;;;;;;4979433;28;19947;-77
2022/05/24 13:41:45;;;;;;;;;;;16.40;99.90;;;;;;4968927;28;19926;-77
2022/05/24 13:44:22;;;;;;;;;;;16.40;99.90;;;;;;4971164;28;20665;-79
2022/05/24 13:46:48;;;;;;;;;;;17.00;99.90;;;;;;4966574;28;19929;-78
2022/05/24 13:49:25;;;;;;;;;;;17.70;99.90;;;;;;4933921;28;20400;-83
2022/05/24 13:51:51;;;;;;;;;;;18.00;99.90;;;;;;4975406;28;19925;-79
2022/05/24 13:54:33;;;;;;;;;;;18.10;99.90;;;;;;4963008;28;20019;-76
2022/05/24 13:57:00;;;;;;;;;;;17.70;99.90;;;;;;4970165;28;19948;-79
2022/05/24 13:59:26;;;;;;;;;;;17.20;99.90;;;;;;4980949;28;19983;-80
2022/05/24 14:02:10;;;;;;;;;;;17.10;99.90;;;;;;4980413;28;20023;-81
2022/05/24 14:04:38;;;;;;;;;;;17.00;99.90;;;;;;4982796;28;19925;-79
2022/05/24 14:07:06;;;;;;;;;;;16.80;99.90;;;;;;4970895;28;19926;-80
2022/05/24 14:09:33;;;;;;;;;;;16.60;99.90;;;;;;4978675;28;19929;-81
2022/05/24 14:12:06;;;;;;;;;;;17.00;99.90;;;;;;4985231;28;19933;-80
2022/05/24 14:14:32;;;;;;;;;;;17.80;99.90;;;;;;4981447;28;20007;-80
2022/05/24 14:16:59;;;;;;;;;;;18.10;99.90;;;;;;4941062;28;19960;-80
2022/05/24 14:19:25;;;;;;;;;;;18.40;99.90;;;;;;4982690;28;20025;-84
2022/05/24 14:21:54;;;;;;;;;;;18.60;99.90;;;;;;4965360;28;20318;-81
2022/05/24 14:24:21;;;;;;;;;;;18.70;99.90;;;;;;4978760;28;19925;-82
2022/05/24 14:26:48;;;;;;;;;;;18.90;99.90;;;;;;4983861;28;19991;-80
2022/05/24 14:29:14;;;;;;;;;;;18.60;99.90;;;;;;4971490;28;20491;-79
2022/05/24 14:31:41;;;;;;;;;;;18.70;99.90;;;;;;4989132;28;19932;-80
2022/05/24 14:34:08;;;;;;;;;;;18.20;99.90;;;;;;4984616;28;19929;-81
2022/05/24 14:36:34;;;;;;;;;;;17.80;99.90;;;;;;4985385;28;20423;-80
2022/05/24 14:39:00;;;;;;;;;;;17.30;99.90;;;;;;4949190;28;20387;-81
2022/05/24 14:41:27;;;;;;;;;;;17.00;99.90;;;;;;4964387;28;20026;-79
2022/05/24 14:44:00;;;;;;;;;;;16.80;99.90;;;;;;4983102;28;19931;-81
2022/05/24 14:46:27;;;;;;;;;;;16.70;99.90;;;;;;4985057;28;19932;-82
2022/05/24 14:48:53;;;;;;;;;;;16.50;99.90;;;;;;4985928;28;19925;-79
2022/05/24 14:51:30;;;;;;;;;;;16.70;99.90;;;;;;4982374;28;19930;-80
2022/05/24 14:53:58;;;;;;;;;;;16.80;99.90;;;;;;4979888;28;19925;-79
2022/05/24 14:56:23;;;;;;;;;;;16.70;99.90;;;;;;4968724;28;19921;-78
2022/05/24 14:58:49;;;;;;;;;;;16.60;99.90;;;;;;4986423;28;21084;-79
2022/05/24 15:01:14;;;;;;;;;;;16.50;99.90;;;;;;4984190;28;20420;-80
2022/05/24 15:03:40;;;;;;;;;;;16.50;99.90;;;;;;4983858;28;19929;-79
2022/05/24 15:06:06;;;;;;;;;;;16.50;99.90;;;;;;4984382;28;19980;-79
2022/05/24 15:16:49;;;;;;;;;;;16.90;99.90;;;;;;4989427;28;19925;-79
2022/05/24 15:19:18;;;;;;;;;;;16.90;99.90;;;;;;4981419;28;19928;-81